Airfield :







YOU CAN JOIN US ON...

 
LOGIN :

Register | Disclaimer

   EN    FR    IT 

 









Legend :    VFR   Marginal VFR   IFR   Intensive IFR   Very Intensive IFR
Visi :
Ceiling :
>= 8 km
>= 3000ft
5 to 8 km
1000 to 3000 ft
1500m to 5 km
500 to 1000 ft
800 to 1500m
200 to 500 ft
< 800m
< 200 ft
Symbols :   Thunderstorms  Fog  Heavy snow  Heavy precipitations  Wind > 20 kt






- Airport Elevation : 1808 ft
- IATA code : YWK


CYWK - Wabush

CURRENT METAR :
  • 141800Z 17007KT 150V210 15SM BKN024 11/03 A2994 RMK CU6 SLP158

EXPIRED METARs :
  • 141700Z 19010KT 140V210 15SM BKN022 BKN027 09/04 A2994 RMK CU5SC2 SLP158
  • 141600Z 23006KT 15SM BKN020 09/05 A2995 RMK CU6 SLP161

TAF AMD TAF CYWK
Valid from the 14 at 18:00 until the 15 at 02:00 UTC


141802Z 1418/1502 19008KT P6SM SCT020
TEMPO 1418/1420 BKN020
FM142000 18012KT P6SM FEW020 SCT200
BECMG 1421/1423 16008KT RMK NXT FCST BY 142000Z



MET'MAP, your aeronautical weather chart ! - Copyright ORBIFLY December 2007 - Disclaimer

ORBIFLY MET'MAP TEAM :

Programming & Development : Alexandra Zaïnal
Concept & Development : Baudouin d'Aumeries
Co-Development & Prog : Marc-Olivier Méhu
Technical & hardware support : Manuel Goepfert

Contact : metmap@orbifly.com




SOURCES & CREDITS :

   NOAA